createdAt,value
2023-02-24T00:03:11.082Z,5.40
2023-02-24T00:07:14.124Z,5.30
2023-02-24T00:11:18.813Z,5.30
2023-02-24T00:15:23.264Z,5.30
2023-02-24T00:19:27.169Z,5.30
2023-02-24T00:23:29.944Z,5.30
2023-02-24T00:27:33.208Z,5.20
2023-02-24T00:31:39.637Z,5.30
2023-02-24T00:35:42.578Z,5.20
2023-02-24T00:39:45.382Z,5.20
2023-02-24T00:43:48.199Z,5.20
2023-02-24T00:47:52.341Z,5.20
2023-02-24T00:51:55.522Z,5.20
2023-02-24T00:56:00.413Z,5.20
2023-02-24T01:00:10.319Z,5.20
2023-02-24T01:04:15.121Z,5.20
2023-02-24T01:08:21.682Z,5.20
2023-02-24T01:12:41.645Z,5.20
2023-02-24T01:16:46.723Z,5.20
2023-02-24T01:20:50.887Z,5.20
2023-02-24T01:24:53.773Z,5.20
2023-02-24T01:28:56.771Z,5.10
2023-02-24T01:32:59.814Z,5.10
2023-02-24T01:37:04.104Z,5.10
2023-02-24T01:41:07.547Z,5.10
2023-02-24T01:45:15.097Z,5.00
2023-02-24T01:49:19.389Z,5.00
2023-02-24T01:53:23.602Z,5.00
2023-02-24T01:57:27.551Z,5.00
2023-02-24T02:01:30.663Z,4.90
2023-02-24T02:05:33.832Z,4.90
2023-02-24T02:09:38.319Z,4.90
2023-02-24T02:13:43.210Z,4.90
2023-02-24T02:17:51.346Z,4.90
2023-02-24T02:22:02.375Z,4.90
2023-02-24T02:26:27.014Z,4.80
2023-02-24T02:30:48.474Z,4.80
2023-02-24T02:34:55.114Z,4.80
2023-02-24T02:39:03.220Z,4.80
2023-02-24T02:43:10.472Z,4.70
2023-02-24T02:47:15.151Z,4.70
2023-02-24T02:51:20.799Z,4.70
2023-02-24T02:55:25.439Z,4.70
2023-02-24T02:59:30.283Z,4.60
2023-02-24T03:03:34.487Z,4.60
2023-02-24T03:07:41.316Z,4.60
2023-02-24T03:11:44.704Z,4.50
2023-02-24T03:15:48.266Z,4.50
2023-02-24T03:19:54.873Z,4.50
2023-02-24T03:23:59.215Z,4.50
2023-02-24T03:28:05.895Z,4.50
2023-02-24T03:32:11.946Z,4.50
2023-02-24T03:36:15.166Z,4.40
2023-02-24T03:40:21.072Z,4.40
2023-02-24T03:44:24.739Z,4.40
2023-02-24T03:48:29.176Z,4.40
2023-02-24T03:52:35.894Z,4.30
2023-02-24T03:56:45.934Z,4.30
2023-02-24T04:00:53.773Z,4.30
2023-02-24T04:05:00.430Z,4.20
2023-02-24T04:09:08.944Z,4.20
2023-02-24T04:13:18.849Z,4.10
2023-02-24T04:17:23.959Z,4.10
2023-02-24T04:21:27.791Z,4.10
2023-02-24T04:25:31.852Z,4.00
2023-02-24T04:29:39.302Z,4.00
2023-02-24T04:33:42.085Z,3.90
2023-02-24T04:37:45.130Z,3.90
2023-02-24T04:41:49.430Z,3.90
2023-02-24T04:45:53.642Z,3.90
2023-02-24T04:49:57.337Z,3.80
2023-02-24T04:54:00.135Z,3.80
2023-02-24T04:58:03.141Z,3.80
2023-02-24T05:02:07.517Z,3.70
2023-02-24T05:06:16.075Z,3.70
2023-02-24T05:10:19.778Z,3.80
2023-02-24T05:14:23.036Z,3.70
2023-02-24T05:18:30.179Z,3.70
2023-02-24T05:22:32.975Z,3.70
2023-02-24T05:26:37.351Z,3.70
2023-02-24T05:30:40.320Z,3.70
2023-02-24T05:34:44.503Z,3.70
2023-02-24T05:38:47.890Z,3.70
2023-02-24T05:42:51.906Z,3.70
2023-02-24T05:46:58.353Z,3.70
2023-02-24T05:51:05.057Z,3.70
2023-02-24T05:55:14.054Z,3.70
2023-02-24T05:59:21.352Z,3.70
2023-02-24T06:03:31.008Z,3.70
2023-02-24T06:07:35.416Z,3.80
2023-02-24T06:11:38.370Z,3.70
2023-02-24T06:15:41.907Z,3.80
2023-02-24T06:19:44.898Z,3.80
2023-02-24T06:23:49.313Z,3.80
2023-02-24T06:27:55.549Z,3.80
2023-02-24T06:31:58.923Z,3.80
2023-02-24T06:36:04.600Z,3.80
2023-02-24T06:40:15.801Z,3.70
2023-02-24T06:44:19.006Z,3.70
2023-02-24T06:48:22.990Z,3.70
2023-02-24T06:52:26.488Z,3.70
2023-02-24T06:56:34.820Z,3.70
2023-02-24T07:00:39.376Z,3.70
2023-02-24T07:04:44.721Z,3.70
2023-02-24T07:08:47.936Z,3.70
2023-02-24T07:12:54.664Z,3.70
2023-02-24T07:16:59.525Z,3.70
2023-02-24T07:21:05.261Z,3.70
2023-02-24T07:25:08.345Z,3.70
2023-02-24T07:29:13.268Z,3.70
2023-02-24T07:33:18.128Z,3.70
2023-02-24T07:37:21.161Z,3.70
2023-02-24T07:41:24.051Z,3.70
2023-02-24T07:45:28.971Z,3.70
2023-02-24T07:49:39.172Z,3.70
2023-02-24T07:53:42.294Z,3.70
2023-02-24T07:57:46.592Z,3.80
2023-02-24T08:01:50.816Z,3.80
2023-02-24T08:05:58.980Z,3.80
2023-02-24T08:10:14.127Z,3.80
2023-02-24T08:14:17.242Z,3.80
2023-02-24T08:18:21.394Z,3.80
2023-02-24T08:22:25.152Z,3.80
2023-02-24T08:26:31.711Z,3.80
2023-02-24T08:30:38.856Z,3.80
2023-02-24T08:34:44.354Z,3.80
2023-02-24T08:38:52.190Z,3.80
2023-02-24T08:42:58.522Z,3.80
2023-02-24T08:47:05.315Z,3.80
2023-02-24T08:51:12.307Z,3.80
2023-02-24T08:55:15.127Z,3.80
2023-02-24T08:59:37.683Z,3.80
2023-02-24T09:03:46.132Z,3.80
2023-02-24T09:07:54.765Z,3.80
2023-02-24T09:11:59.044Z,3.70
2023-02-24T09:16:02.344Z,3.70
2023-02-24T09:20:44.285Z,3.70
2023-02-24T09:24:51.095Z,3.70
2023-02-24T09:28:58.628Z,3.70
2023-02-24T09:33:02.429Z,3.70
2023-02-24T09:37:05.895Z,3.70
2023-02-24T09:41:31.682Z,3.70
2023-02-24T09:45:34.969Z,3.70
2023-02-24T09:49:46.593Z,3.70
2023-02-24T09:53:52.666Z,3.70
2023-02-24T09:58:29.325Z,3.70
2023-02-24T10:02:44.570Z,3.70
2023-02-24T10:06:48.829Z,3.60
2023-02-24T10:11:07.322Z,3.60
2023-02-24T10:15:20.587Z,3.60
2023-02-24T10:19:25.450Z,3.60
2023-02-24T10:23:33.039Z,3.50
2023-02-24T10:27:39.546Z,3.50
2023-02-24T10:31:48.005Z,3.60
2023-02-24T10:35:51.102Z,3.60
2023-02-24T10:39:56.975Z,3.60
2023-02-24T10:43:59.962Z,3.70
2023-02-24T10:48:08.646Z,3.70
2023-02-24T10:52:29.381Z,3.70
2023-02-24T10:56:44.947Z,3.70
2023-02-24T11:01:13.339Z,3.80
2023-02-24T11:05:38.050Z,3.80
2023-02-24T11:09:52.537Z,3.70
2023-02-24T11:14:19.087Z,3.80
2023-02-24T11:18:23.520Z,3.80
2023-02-24T11:22:29.319Z,3.80
2023-02-24T11:26:34.666Z,3.70
2023-02-24T11:30:43.391Z,3.70
2023-02-24T11:34:50.347Z,3.70
2023-02-24T11:39:15.217Z,3.70
2023-02-24T11:43:22.956Z,3.70
2023-02-24T11:47:29.003Z,3.70
2023-02-24T11:51:32.951Z,3.70
2023-02-24T11:55:39.145Z,3.70
2023-02-24T11:59:45.351Z,3.70
2023-02-24T12:03:51.993Z,3.70
2023-02-24T12:07:57.746Z,3.70
2023-02-24T12:12:03.174Z,3.70
2023-02-24T12:16:08.802Z,3.70
2023-02-24T12:20:20.092Z,3.70
2023-02-24T12:24:22.993Z,3.70
2023-02-24T12:28:34.042Z,3.60
2023-02-24T12:32:46.799Z,3.60
2023-02-24T12:36:56.829Z,3.60
2023-02-24T12:41:07.203Z,3.60
2023-02-24T12:45:18.472Z,3.60
2023-02-24T12:49:28.173Z,3.60
2023-02-24T12:53:34.826Z,3.60
2023-02-24T12:57:42.750Z,3.60
2023-02-24T13:01:52.516Z,3.60
2023-02-24T13:05:59.210Z,3.70
2023-02-24T13:10:05.851Z,3.70
2023-02-24T13:14:13.659Z,3.70
2023-02-24T13:18:25.479Z,3.80
2023-02-24T13:22:29.870Z,3.80
2023-02-24T13:26:33.314Z,3.80
2023-02-24T13:30:38.488Z,3.90
2023-02-24T13:34:45.682Z,4.00
2023-02-24T13:38:49.582Z,4.00
2023-02-24T13:43:00.157Z,4.10
2023-02-24T13:47:13.865Z,4.10
2023-02-24T13:51:29.235Z,4.10
2023-02-24T13:55:39.805Z,4.20
2023-02-24T14:00:01.625Z,4.20
2023-02-24T14:04:14.505Z,4.20
2023-02-24T14:08:21.180Z,4.30
2023-02-24T14:12:25.692Z,4.40
2023-02-24T14:16:30.541Z,4.40
2023-02-24T14:20:33.992Z,4.40
2023-02-24T14:24:38.170Z,4.50
2023-02-24T14:28:41.313Z,4.50
2023-02-24T14:32:45.383Z,4.50
2023-02-24T14:36:49.073Z,4.60
2023-02-24T14:40:53.230Z,4.70
2023-02-24T14:44:57.055Z,4.70
2023-02-24T14:48:59.865Z,4.70
2023-02-24T14:53:05.040Z,4.80
2023-02-24T14:57:11.623Z,4.80
2023-02-24T15:01:19.224Z,4.80
2023-02-24T15:05:22.244Z,4.90
2023-02-24T15:09:27.478Z,4.90
2023-02-24T15:13:43.242Z,4.90
2023-02-24T15:17:48.669Z,5.00
2023-02-24T15:21:51.694Z,5.00
2023-02-24T15:25:54.702Z,5.00
2023-02-24T15:30:01.106Z,5.00
2023-02-24T15:34:04.353Z,5.00
2023-02-24T15:38:07.152Z,5.00
2023-02-24T15:42:10.871Z,5.00
2023-02-24T15:46:23.149Z,5.00
2023-02-24T15:50:26.338Z,5.00
2023-02-24T15:54:30.239Z,5.00
2023-02-24T15:58:33.122Z,5.00
2023-02-24T16:02:37.358Z,5.00
2023-02-24T16:06:42.554Z,5.00
2023-02-24T16:10:45.467Z,5.00
2023-02-24T16:14:50.166Z,5.00
2023-02-24T16:18:54.547Z,5.00
2023-02-24T16:22:58.058Z,5.00
2023-02-24T16:27:00.861Z,5.00
2023-02-24T16:31:03.896Z,5.00
2023-02-24T16:35:11.029Z,5.00
2023-02-24T16:39:14.873Z,5.00
2023-02-24T16:43:17.863Z,5.10
2023-02-24T16:47:22.579Z,5.10
2023-02-24T16:51:26.879Z,5.10
2023-02-24T16:55:29.709Z,5.10
2023-02-24T16:59:32.541Z,5.10
2023-02-24T17:03:38.782Z,5.10
2023-02-24T17:07:42.928Z,5.10
2023-02-24T17:11:45.948Z,5.20
2023-02-24T17:15:49.771Z,5.20
2023-02-24T17:19:52.687Z,5.20
2023-02-24T17:23:56.795Z,5.20
2023-02-24T17:28:00.182Z,5.20
2023-02-24T17:32:03.134Z,5.20
2023-02-24T17:36:06.226Z,5.30
2023-02-24T17:40:11.577Z,5.30
2023-02-24T17:44:14.356Z,5.30
2023-02-24T17:48:17.305Z,5.40
2023-02-24T17:52:20.174Z,5.40
2023-02-24T17:56:24.388Z,5.40
2023-02-24T18:00:27.209Z,5.40
2023-02-24T18:04:30.000Z,5.40
2023-02-24T18:08:33.257Z,5.40
2023-02-24T18:12:37.705Z,5.30
2023-02-24T18:16:40.526Z,5.30
2023-02-24T18:20:43.658Z,5.20
2023-02-24T18:24:46.446Z,5.20
2023-02-24T18:28:52.922Z,5.10
2023-02-24T18:32:56.172Z,5.10
2023-02-24T18:37:00.564Z,5.10
2023-02-24T18:41:04.737Z,5.00
2023-02-24T18:45:09.447Z,4.90
2023-02-24T18:49:12.239Z,4.80
2023-02-24T18:53:15.071Z,4.80
2023-02-24T18:57:17.968Z,4.70
2023-02-24T19:01:23.263Z,4.60
2023-02-24T19:05:36.796Z,4.60
2023-02-24T19:09:41.930Z,4.60
2023-02-24T19:13:45.053Z,4.50
2023-02-24T19:17:49.257Z,4.50
2023-02-24T19:21:52.061Z,4.50
2023-02-24T19:25:54.881Z,4.50
2023-02-24T19:29:58.013Z,4.50
2023-02-24T19:34:03.371Z,4.60
2023-02-24T19:38:06.432Z,4.60
2023-02-24T19:42:09.323Z,4.60
2023-02-24T19:46:12.824Z,4.60
2023-02-24T19:50:17.496Z,4.60
2023-02-24T19:54:22.469Z,4.70
2023-02-24T19:58:25.331Z,4.70
2023-02-24T20:02:29.418Z,4.70
2023-02-24T20:06:35.949Z,4.70
2023-02-24T20:10:39.731Z,4.70
2023-02-24T20:14:42.942Z,4.80
2023-02-24T20:18:46.237Z,4.80
2023-02-24T20:22:50.422Z,4.80
2023-02-24T20:26:53.411Z,4.80
2023-02-24T20:30:56.949Z,4.80
2023-02-24T20:35:00.611Z,4.80
2023-02-24T20:39:08.457Z,4.80
2023-02-24T20:43:12.071Z,4.80
2023-02-24T20:47:16.269Z,4.80
2023-02-24T20:51:20.642Z,4.70
2023-02-24T20:55:25.001Z,4.70
2023-02-24T20:59:28.224Z,4.70
2023-02-24T21:03:32.604Z,4.70
2023-02-24T21:07:37.046Z,4.80
2023-02-24T21:11:41.410Z,4.80
2023-02-24T21:15:50.169Z,4.80
2023-02-24T21:19:53.099Z,4.80
2023-02-24T21:23:56.748Z,4.80
2023-02-24T21:28:01.375Z,4.80
2023-02-24T21:32:04.401Z,4.80
2023-02-24T21:36:09.277Z,4.80
2023-02-24T21:40:12.944Z,4.80
2023-02-24T21:44:17.135Z,4.80
2023-02-24T21:48:20.114Z,4.80
2023-02-24T21:52:23.060Z,4.80
2023-02-24T21:56:27.198Z,4.80
2023-02-24T22:00:32.883Z,4.80
2023-02-24T22:04:36.099Z,4.80
2023-02-24T22:08:43.280Z,4.80
2023-02-24T22:12:46.622Z,4.80
2023-02-24T22:16:50.800Z,4.80
2023-02-24T22:20:53.627Z,4.80
2023-02-24T22:24:56.425Z,4.80
2023-02-24T22:28:59.750Z,4.80
2023-02-24T22:33:04.988Z,4.70
2023-02-24T22:37:08.291Z,4.70
2023-02-24T22:41:12.850Z,4.70
2023-02-24T22:45:15.711Z,4.70
2023-02-24T22:49:19.872Z,4.70
2023-02-24T22:53:22.969Z,4.70
2023-02-24T22:57:25.867Z,4.70
2023-02-24T23:01:30.228Z,4.70
2023-02-24T23:05:34.606Z,4.70
2023-02-24T23:09:37.439Z,4.70
2023-02-24T23:13:41.837Z,4.70
2023-02-24T23:17:44.996Z,4.70
2023-02-24T23:21:50.176Z,4.70
2023-02-24T23:25:53.388Z,4.70
2023-02-24T23:29:56.231Z,4.70
2023-02-24T23:34:00.191Z,4.70
2023-02-24T23:38:04.419Z,4.70
2023-02-24T23:42:07.212Z,4.70
2023-02-24T23:46:11.249Z,4.70
2023-02-24T23:50:14.334Z,4.70
2023-02-24T23:54:24.172Z,4.70
2023-02-24T23:58:28.112Z,4.70
